sensor_id;sensor_type;location;lat;lon;timestamp;P1;durP1;ratioP1;P2;durP2;ratioP2
48588;SDS011;34369;51.174;6.738;2023-05-07T00:02:04;27.88;;;25.98;;
48588;SDS011;34369;51.174;6.738;2023-05-07T00:04:37;27.80;;;25.88;;
48588;SDS011;34369;51.174;6.738;2023-05-07T00:07:11;27.25;;;25.35;;
48588;SDS011;34369;51.174;6.738;2023-05-07T00:09:43;27.10;;;25.27;;
48588;SDS011;34369;51.174;6.738;2023-05-07T00:12:17;26.98;;;25.08;;
48588;SDS011;34369;51.174;6.738;2023-05-07T00:14:49;26.80;;;25.00;;
48588;SDS011;34369;51.174;6.738;2023-05-07T00:17:21;28.10;;;26.10;;
48588;SDS011;34369;51.174;6.738;2023-05-07T00:19:53;27.30;;;25.42;;
48588;SDS011;34369;51.174;6.738;2023-05-07T00:22:26;27.67;;;25.73;;
48588;SDS011;34369;51.174;6.738;2023-05-07T00:25:00;27.30;;;25.30;;
48588;SDS011;34369;51.174;6.738;2023-05-07T00:27:34;27.67;;;25.77;;
48588;SDS011;34369;51.174;6.738;2023-05-07T00:30:07;28.00;;;25.90;;
48588;SDS011;34369;51.174;6.738;2023-05-07T00:32:41;27.60;;;25.70;;
48588;SDS011;34369;51.174;6.738;2023-05-07T00:35:15;28.00;;;26.00;;
48588;SDS011;34369;51.174;6.738;2023-05-07T00:37:47;28.70;;;26.80;;
48588;SDS011;34369;51.174;6.738;2023-05-07T00:40:20;28.05;;;26.15;;
48588;SDS011;34369;51.174;6.738;2023-05-07T00:42:54;27.42;;;25.52;;
48588;SDS011;34369;51.174;6.738;2023-05-07T00:45:28;27.88;;;26.05;;
48588;SDS011;34369;51.174;6.738;2023-05-07T00:48:01;27.55;;;25.75;;
48588;SDS011;34369;51.174;6.738;2023-05-07T00:50:35;27.83;;;25.92;;
48588;SDS011;34369;51.174;6.738;2023-05-07T00:53:08;27.80;;;25.90;;
48588;SDS011;34369;51.174;6.738;2023-05-07T00:55:40;28.45;;;26.52;;
48588;SDS011;34369;51.174;6.738;2023-05-07T00:58:14;28.10;;;26.10;;
48588;SDS011;34369;51.174;6.738;2023-05-07T01:00:46;28.75;;;26.75;;
48588;SDS011;34369;51.174;6.738;2023-05-07T01:03:19;28.42;;;26.52;;
48588;SDS011;34369;51.174;6.738;2023-05-07T01:05:52;28.30;;;26.40;;
48588;SDS011;34369;51.174;6.738;2023-05-07T01:08:25;26.88;;;25.08;;
48588;SDS011;34369;51.174;6.738;2023-05-07T01:11:00;28.05;;;26.05;;
48588;SDS011;34369;51.174;6.738;2023-05-07T01:13:36;28.05;;;26.15;;
48588;SDS011;34369;51.174;6.738;2023-05-07T01:16:10;28.48;;;26.58;;
48588;SDS011;34369;51.174;6.738;2023-05-07T01:18:42;26.95;;;25.15;;
48588;SDS011;34369;51.174;6.738;2023-05-07T01:21:15;27.85;;;25.95;;
48588;SDS011;34369;51.174;6.738;2023-05-07T01:23:50;27.95;;;25.88;;
48588;SDS011;34369;51.174;6.738;2023-05-07T01:26:24;27.80;;;25.90;;
48588;SDS011;34369;51.174;6.738;2023-05-07T01:28:56;28.15;;;26.25;;
48588;SDS011;34369;51.174;6.738;2023-05-07T01:31:28;27.98;;;26.08;;
48588;SDS011;34369;51.174;6.738;2023-05-07T01:34:01;27.08;;;25.27;;
48588;SDS011;34369;51.174;6.738;2023-05-07T01:36:35;27.92;;;25.92;;
48588;SDS011;34369;51.174;6.738;2023-05-07T01:39:11;27.50;;;25.58;;
48588;SDS011;34369;51.174;6.738;2023-05-07T01:41:44;27.42;;;25.60;;
48588;SDS011;34369;51.174;6.738;2023-05-07T01:44:18;28.65;;;26.75;;
48588;SDS011;34369;51.174;6.738;2023-05-07T01:46:50;27.65;;;25.83;;
48588;SDS011;34369;51.174;6.738;2023-05-07T01:49:23;27.58;;;25.60;;
48588;SDS011;34369;51.174;6.738;2023-05-07T01:51:57;27.45;;;25.63;;
48588;SDS011;34369;51.174;6.738;2023-05-07T01:54:31;26.40;;;24.60;;
48588;SDS011;34369;51.174;6.738;2023-05-07T01:57:03;27.23;;;25.30;;
48588;SDS011;34369;51.174;6.738;2023-05-07T01:59:35;27.75;;;25.85;;
48588;SDS011;34369;51.174;6.738;2023-05-07T02:02:07;28.08;;;26.17;;
48588;SDS011;34369;51.174;6.738;2023-05-07T02:04:39;26.52;;;24.73;;
48588;SDS011;34369;51.174;6.738;2023-05-07T02:07:11;27.05;;;25.20;;
48588;SDS011;34369;51.174;6.738;2023-05-07T02:09:45;27.48;;;25.52;;
48588;SDS011;34369;51.174;6.738;2023-05-07T02:12:17;28.88;;;26.80;;
48588;SDS011;34369;51.174;6.738;2023-05-07T02:14:49;26.70;;;24.95;;
48588;SDS011;34369;51.174;6.738;2023-05-07T02:17:22;27.70;;;25.65;;
48588;SDS011;34369;51.174;6.738;2023-05-07T02:19:55;28.17;;;26.27;;
48588;SDS011;34369;51.174;6.738;2023-05-07T02:22:27;27.25;;;25.45;;
48588;SDS011;34369;51.174;6.738;2023-05-07T02:25:02;27.85;;;25.95;;
48588;SDS011;34369;51.174;6.738;2023-05-07T02:27:36;28.67;;;26.77;;
48588;SDS011;34369;51.174;6.738;2023-05-07T02:30:08;27.15;;;25.35;;
48588;SDS011;34369;51.174;6.738;2023-05-07T02:32:42;28.00;;;26.10;;
48588;SDS011;34369;51.174;6.738;2023-05-07T02:35:15;28.25;;;26.38;;
48588;SDS011;34369;51.174;6.738;2023-05-07T02:37:47;27.90;;;26.00;;
48588;SDS011;34369;51.174;6.738;2023-05-07T02:40:22;28.42;;;26.52;;
48588;SDS011;34369;51.174;6.738;2023-05-07T02:42:54;28.50;;;26.52;;
48588;SDS011;34369;51.174;6.738;2023-05-07T02:45:26;27.10;;;25.30;;
48588;SDS011;34369;51.174;6.738;2023-05-07T02:47:59;27.00;;;25.20;;
48588;SDS011;34369;51.174;6.738;2023-05-07T02:50:31;28.20;;;26.33;;
48588;SDS011;34369;51.174;6.738;2023-05-07T02:53:04;28.75;;;26.75;;
48588;SDS011;34369;51.174;6.738;2023-05-07T02:55:38;28.35;;;26.55;;
48588;SDS011;34369;51.174;6.738;2023-05-07T02:58:10;28.33;;;26.40;;
48588;SDS011;34369;51.174;6.738;2023-05-07T03:00:44;27.83;;;25.92;;
48588;SDS011;34369;51.174;6.738;2023-05-07T03:03:17;29.65;;;26.67;;
48588;SDS011;34369;51.174;6.738;2023-05-07T03:05:50;27.27;;;25.48;;
48588;SDS011;34369;51.174;6.738;2023-05-07T03:08:23;27.35;;;25.55;;
48588;SDS011;34369;51.174;6.738;2023-05-07T03:10:58;28.55;;;26.55;;
48588;SDS011;34369;51.174;6.738;2023-05-07T03:13:32;28.45;;;26.55;;
48588;SDS011;34369;51.174;6.738;2023-05-07T03:16:05;28.27;;;26.38;;
48588;SDS011;34369;51.174;6.738;2023-05-07T03:18:37;28.70;;;26.83;;
48588;SDS011;34369;51.174;6.738;2023-05-07T03:21:09;26.70;;;24.80;;
48588;SDS011;34369;51.174;6.738;2023-05-07T03:23:41;27.77;;;25.98;;
48588;SDS011;34369;51.174;6.738;2023-05-07T03:26:15;27.42;;;25.52;;
48588;SDS011;34369;51.174;6.738;2023-05-07T03:28:49;27.37;;;25.50;;
48588;SDS011;34369;51.174;6.738;2023-05-07T03:31:22;27.83;;;26.02;;
48588;SDS011;34369;51.174;6.738;2023-05-07T03:33:56;26.60;;;24.83;;
48588;SDS011;34369;51.174;6.738;2023-05-07T03:36:30;28.00;;;26.10;;
48588;SDS011;34369;51.174;6.738;2023-05-07T03:39:08;28.00;;;25.90;;
48588;SDS011;34369;51.174;6.738;2023-05-07T03:41:52;26.65;;;24.85;;
48588;SDS011;34369;51.174;6.738;2023-05-07T03:44:25;27.50;;;25.65;;
48588;SDS011;34369;51.174;6.738;2023-05-07T03:46:59;27.20;;;25.40;;
48588;SDS011;34369;51.174;6.738;2023-05-07T03:49:32;28.02;;;26.13;;
48588;SDS011;34369;51.174;6.738;2023-05-07T03:52:08;28.23;;;26.33;;
48588;SDS011;34369;51.174;6.738;2023-05-07T03:54:41;27.95;;;26.05;;
48588;SDS011;34369;51.174;6.738;2023-05-07T03:57:17;27.75;;;25.85;;
48588;SDS011;34369;51.174;6.738;2023-05-07T03:59:50;28.33;;;26.42;;
48588;SDS011;34369;51.174;6.738;2023-05-07T04:02:23;27.40;;;25.58;;
48588;SDS011;34369;51.174;6.738;2023-05-07T04:04:57;27.50;;;25.60;;
48588;SDS011;34369;51.174;6.738;2023-05-07T04:07:34;28.23;;;26.33;;
48588;SDS011;34369;51.174;6.738;2023-05-07T04:10:09;28.33;;;26.38;;
48588;SDS011;34369;51.174;6.738;2023-05-07T04:12:45;27.70;;;25.85;;
48588;SDS011;34369;51.174;6.738;2023-05-07T04:15:19;27.85;;;25.95;;
48588;SDS011;34369;51.174;6.738;2023-05-07T04:17:54;27.65;;;25.75;;
48588;SDS011;34369;51.174;6.738;2023-05-07T04:20:28;28.38;;;26.48;;
48588;SDS011;34369;51.174;6.738;2023-05-07T04:23:03;28.25;;;26.35;;
48588;SDS011;34369;51.174;6.738;2023-05-07T04:25:37;27.85;;;25.95;;
48588;SDS011;34369;51.174;6.738;2023-05-07T04:28:17;28.33;;;26.42;;
48588;SDS011;34369;51.174;6.738;2023-05-07T04:30:54;27.90;;;26.00;;
48588;SDS011;34369;51.174;6.738;2023-05-07T04:33:27;28.45;;;26.45;;
48588;SDS011;34369;51.174;6.738;2023-05-07T04:36:01;27.45;;;25.65;;
48588;SDS011;34369;51.174;6.738;2023-05-07T04:38:35;28.00;;;26.00;;
48588;SDS011;34369;51.174;6.738;2023-05-07T04:41:09;27.48;;;25.58;;
48588;SDS011;34369;51.174;6.738;2023-05-07T04:43:50;27.95;;;26.00;;
48588;SDS011;34369;51.174;6.738;2023-05-07T04:46:24;26.83;;;24.92;;
48588;SDS011;34369;51.174;6.738;2023-05-07T04:48:58;27.63;;;25.83;;
48588;SDS011;34369;51.174;6.738;2023-05-07T04:51:34;28.75;;;26.75;;
48588;SDS011;34369;51.174;6.738;2023-05-07T04:54:09;27.40;;;25.50;;
48588;SDS011;34369;51.174;6.738;2023-05-07T04:56:42;28.10;;;26.20;;
48588;SDS011;34369;51.174;6.738;2023-05-07T04:59:21;28.08;;;26.15;;
48588;SDS011;34369;51.174;6.738;2023-05-07T05:01:57;27.85;;;26.02;;
48588;SDS011;34369;51.174;6.738;2023-05-07T05:04:31;27.65;;;25.75;;
48588;SDS011;34369;51.174;6.738;2023-05-07T05:09:41;27.15;;;25.35;;
48588;SDS011;34369;51.174;6.738;2023-05-07T05:18:38;27.52;;;25.63;;
48588;SDS011;34369;51.174;6.738;2023-05-07T05:21:12;27.35;;;25.45;;
48588;SDS011;34369;51.174;6.738;2023-05-07T05:24:14;26.77;;;24.98;;
48588;SDS011;34369;51.174;6.738;2023-05-07T05:26:54;27.43;;;25.63;;
48588;SDS011;34369;51.174;6.738;2023-05-07T05:29:47;27.27;;;25.48;;
48588;SDS011;34369;51.174;6.738;2023-05-07T05:32:24;26.00;;;24.20;;
48588;SDS011;34369;51.174;6.738;2023-05-07T05:34:59;27.35;;;25.48;;
48588;SDS011;34369;51.174;6.738;2023-05-07T05:40:10;26.73;;;24.92;;
48588;SDS011;34369;51.174;6.738;2023-05-07T05:42:45;25.83;;;24.10;;
48588;SDS011;34369;51.174;6.738;2023-05-07T05:45:21;26.75;;;24.95;;
48588;SDS011;34369;51.174;6.738;2023-05-07T05:48:00;26.80;;;25.00;;
48588;SDS011;34369;51.174;6.738;2023-05-07T05:50:36;26.83;;;25.02;;
48588;SDS011;34369;51.174;6.738;2023-05-07T05:53:10;26.85;;;24.98;;
48588;SDS011;34369;51.174;6.738;2023-05-07T05:55:44;26.25;;;24.40;;
48588;SDS011;34369;51.174;6.738;2023-05-07T05:58:19;26.50;;;24.70;;
48588;SDS011;34369;51.174;6.738;2023-05-07T06:01:10;26.85;;;24.95;;
48588;SDS011;34369;51.174;6.738;2023-05-07T06:04:06;26.08;;;24.20;;
48588;SDS011;34369;51.174;6.738;2023-05-07T06:07:14;25.50;;;23.80;;
48588;SDS011;34369;51.174;6.738;2023-05-07T06:10:56;25.33;;;23.52;;
48588;SDS011;34369;51.174;6.738;2023-05-07T06:18:26;26.45;;;24.58;;
48588;SDS011;34369;51.174;6.738;2023-05-07T06:21:38;26.75;;;24.85;;
48588;SDS011;34369;51.174;6.738;2023-05-07T06:24:38;26.67;;;24.77;;
48588;SDS011;34369;51.174;6.738;2023-05-07T06:27:46;25.67;;;23.83;;
48588;SDS011;34369;51.174;6.738;2023-05-07T06:34:43;25.30;;;23.58;;
48588;SDS011;34369;51.174;6.738;2023-05-07T06:42:09;25.58;;;23.85;;
48588;SDS011;34369;51.174;6.738;2023-05-07T06:48:44;25.60;;;23.52;;
48588;SDS011;34369;51.174;6.738;2023-05-07T06:51:33;24.80;;;23.10;;
48588;SDS011;34369;51.174;6.738;2023-05-07T06:54:10;25.55;;;23.80;;
48588;SDS011;34369;51.174;6.738;2023-05-07T06:56:44;25.40;;;23.60;;
48588;SDS011;34369;51.174;6.738;2023-05-07T06:59:20;25.30;;;23.50;;
48588;SDS011;34369;51.174;6.738;2023-05-07T07:01:54;25.67;;;23.83;;
48588;SDS011;34369;51.174;6.738;2023-05-07T07:04:33;24.90;;;23.00;;
48588;SDS011;34369;51.174;6.738;2023-05-07T07:07:20;24.63;;;22.90;;
48588;SDS011;34369;51.174;6.738;2023-05-07T07:10:05;25.27;;;23.48;;
48588;SDS011;34369;51.174;6.738;2023-05-07T07:12:40;24.90;;;23.15;;
48588;SDS011;34369;51.174;6.738;2023-05-07T07:15:16;25.20;;;23.40;;
48588;SDS011;34369;51.174;6.738;2023-05-07T07:24:06;24.33;;;22.63;;
48588;SDS011;34369;51.174;6.738;2023-05-07T07:26:53;23.92;;;22.23;;
48588;SDS011;34369;51.174;6.738;2023-05-07T07:29:26;24.77;;;22.90;;
48588;SDS011;34369;51.174;6.738;2023-05-07T07:32:02;25.15;;;23.23;;
48588;SDS011;34369;51.174;6.738;2023-05-07T07:34:59;24.40;;;22.70;;
48588;SDS011;34369;51.174;6.738;2023-05-07T07:37:36;23.88;;;22.17;;
48588;SDS011;34369;51.174;6.738;2023-05-07T07:40:15;24.30;;;22.60;;
48588;SDS011;34369;51.174;6.738;2023-05-07T07:43:11;24.00;;;22.20;;
48588;SDS011;34369;51.174;6.738;2023-05-07T07:45:49;24.65;;;22.77;;
48588;SDS011;34369;51.174;6.738;2023-05-07T07:48:21;23.70;;;22.00;;
48588;SDS011;34369;51.174;6.738;2023-05-07T07:50:57;24.08;;;22.38;;
48588;SDS011;34369;51.174;6.738;2023-05-07T07:57:25;23.92;;;22.23;;
48588;SDS011;34369;51.174;6.738;2023-05-07T08:07:00;23.17;;;21.48;;
48588;SDS011;34369;51.174;6.738;2023-05-07T08:12:37;22.48;;;20.77;;
48588;SDS011;34369;51.174;6.738;2023-05-07T08:15:14;22.80;;;21.10;;
48588;SDS011;34369;51.174;6.738;2023-05-07T08:21:26;22.38;;;20.70;;
48588;SDS011;34369;51.174;6.738;2023-05-07T08:24:02;23.20;;;21.42;;
48588;SDS011;34369;51.174;6.738;2023-05-07T08:26:37;22.67;;;20.88;;
48588;SDS011;34369;51.174;6.738;2023-05-07T08:29:10;23.58;;;21.77;;
48588;SDS011;34369;51.174;6.738;2023-05-07T08:31:53;22.95;;;21.02;;
48588;SDS011;34369;51.174;6.738;2023-05-07T08:37:49;22.15;;;20.55;;
48588;SDS011;34369;51.174;6.738;2023-05-07T08:40:32;22.48;;;20.77;;
48588;SDS011;34369;51.174;6.738;2023-05-07T08:43:23;22.42;;;20.73;;
48588;SDS011;34369;51.174;6.738;2023-05-07T08:46:04;22.40;;;20.80;;
48588;SDS011;34369;51.174;6.738;2023-05-07T08:48:49;22.35;;;20.65;;
48588;SDS011;34369;51.174;6.738;2023-05-07T08:51:25;22.45;;;20.75;;
48588;SDS011;34369;51.174;6.738;2023-05-07T08:53:58;23.23;;;21.45;;
48588;SDS011;34369;51.174;6.738;2023-05-07T08:56:37;22.20;;;20.60;;
48588;SDS011;34369;51.174;6.738;2023-05-07T08:59:10;22.40;;;20.67;;
48588;SDS011;34369;51.174;6.738;2023-05-07T09:01:43;22.00;;;20.30;;
48588;SDS011;34369;51.174;6.738;2023-05-07T09:04:16;22.88;;;21.17;;
48588;SDS011;34369;51.174;6.738;2023-05-07T09:06:50;22.17;;;20.48;;
48588;SDS011;34369;51.174;6.738;2023-05-07T09:09:22;22.60;;;20.98;;
48588;SDS011;34369;51.174;6.738;2023-05-07T09:11:58;22.23;;;20.52;;
48588;SDS011;34369;51.174;6.738;2023-05-07T09:14:33;22.17;;;20.58;;
48588;SDS011;34369;51.174;6.738;2023-05-07T09:17:06;22.25;;;20.55;;
48588;SDS011;34369;51.174;6.738;2023-05-07T09:19:38;21.75;;;20.05;;
48588;SDS011;34369;51.174;6.738;2023-05-07T09:22:11;22.55;;;20.92;;
48588;SDS011;34369;51.174;6.738;2023-05-07T09:24:47;22.17;;;20.52;;
48588;SDS011;34369;51.174;6.738;2023-05-07T09:27:24;23.30;;;21.60;;
48588;SDS011;34369;51.174;6.738;2023-05-07T09:29:59;22.73;;;21.02;;
48588;SDS011;34369;51.174;6.738;2023-05-07T09:32:36;22.55;;;20.85;;
48588;SDS011;34369;51.174;6.738;2023-05-07T09:35:14;22.80;;;21.10;;
48588;SDS011;34369;51.174;6.738;2023-05-07T09:37:52;22.48;;;20.75;;
48588;SDS011;34369;51.174;6.738;2023-05-07T09:40:29;22.45;;;20.73;;
48588;SDS011;34369;51.174;6.738;2023-05-07T09:43:11;22.55;;;20.80;;
48588;SDS011;34369;51.174;6.738;2023-05-07T09:45:46;22.27;;;20.58;;
48588;SDS011;34369;51.174;6.738;2023-05-07T09:50:56;21.75;;;20.00;;
48588;SDS011;34369;51.174;6.738;2023-05-07T09:53:36;22.00;;;20.30;;
48588;SDS011;34369;51.174;6.738;2023-05-07T09:56:13;22.13;;;20.52;;
48588;SDS011;34369;51.174;6.738;2023-05-07T09:58:50;21.25;;;19.65;;
48588;SDS011;34369;51.174;6.738;2023-05-07T10:01:27;21.70;;;19.83;;
48588;SDS011;34369;51.174;6.738;2023-05-07T10:04:05;21.45;;;19.85;;
48588;SDS011;34369;51.174;6.738;2023-05-07T10:09:17;21.10;;;19.50;;
48588;SDS011;34369;51.174;6.738;2023-05-07T10:11:52;20.98;;;19.42;;
48588;SDS011;34369;51.174;6.738;2023-05-07T10:14:27;21.23;;;19.63;;
48588;SDS011;34369;51.174;6.738;2023-05-07T10:17:02;20.65;;;19.13;;
48588;SDS011;34369;51.174;6.738;2023-05-07T10:19:36;21.05;;;19.52;;
48588;SDS011;34369;51.174;6.738;2023-05-07T10:22:12;20.15;;;18.50;;
48588;SDS011;34369;51.174;6.738;2023-05-07T10:24:46;19.77;;;18.17;;
48588;SDS011;34369;51.174;6.738;2023-05-07T10:27:25;19.77;;;18.27;;
48588;SDS011;34369;51.174;6.738;2023-05-07T10:30:05;20.55;;;18.95;;
48588;SDS011;34369;51.174;6.738;2023-05-07T10:32:50;19.63;;;18.10;;
48588;SDS011;34369;51.174;6.738;2023-05-07T10:35:29;19.63;;;18.02;;
48588;SDS011;34369;51.174;6.738;2023-05-07T10:38:11;19.63;;;18.08;;
48588;SDS011;34369;51.174;6.738;2023-05-07T10:40:46;19.85;;;18.25;;
48588;SDS011;34369;51.174;6.738;2023-05-07T10:43:20;19.23;;;17.73;;
48588;SDS011;34369;51.174;6.738;2023-05-07T10:51:45;18.63;;;17.13;;
48588;SDS011;34369;51.174;6.738;2023-05-07T10:54:46;18.88;;;17.48;;
48588;SDS011;34369;51.174;6.738;2023-05-07T10:57:34;18.48;;;16.98;;
48588;SDS011;34369;51.174;6.738;2023-05-07T11:03:16;18.88;;;17.48;;
48588;SDS011;34369;51.174;6.738;2023-05-07T11:05:51;18.77;;;17.38;;
48588;SDS011;34369;51.174;6.738;2023-05-07T11:08:54;18.98;;;17.58;;
48588;SDS011;34369;51.174;6.738;2023-05-07T11:11:45;18.90;;;17.40;;
48588;SDS011;34369;51.174;6.738;2023-05-07T11:14:42;19.30;;;17.60;;
48588;SDS011;34369;51.174;6.738;2023-05-07T11:17:16;19.50;;;18.00;;
48588;SDS011;34369;51.174;6.738;2023-05-07T11:19:52;18.73;;;17.33;;
48588;SDS011;34369;51.174;6.738;2023-05-07T11:22:36;18.55;;;17.15;;
48588;SDS011;34369;51.174;6.738;2023-05-07T11:25:11;18.52;;;17.13;;
48588;SDS011;34369;51.174;6.738;2023-05-07T11:27:50;19.02;;;17.63;;
48588;SDS011;34369;51.174;6.738;2023-05-07T11:30:24;19.13;;;17.63;;
48588;SDS011;34369;51.174;6.738;2023-05-07T11:32:58;18.58;;;17.17;;
48588;SDS011;34369;51.174;6.738;2023-05-07T11:35:33;18.52;;;17.13;;
48588;SDS011;34369;51.174;6.738;2023-05-07T11:40:48;18.67;;;17.23;;
48588;SDS011;34369;51.174;6.738;2023-05-07T11:43:23;18.92;;;17.45;;
48588;SDS011;34369;51.174;6.738;2023-05-07T11:46:04;18.67;;;17.27;;
48588;SDS011;34369;51.174;6.738;2023-05-07T11:48:39;18.73;;;17.27;;
48588;SDS011;34369;51.174;6.738;2023-05-07T11:51:14;18.52;;;17.13;;
48588;SDS011;34369;51.174;6.738;2023-05-07T11:53:52;19.33;;;17.73;;
48588;SDS011;34369;51.174;6.738;2023-05-07T11:56:25;19.75;;;18.15;;
48588;SDS011;34369;51.174;6.738;2023-05-07T11:58:58;19.80;;;18.10;;
48588;SDS011;34369;51.174;6.738;2023-05-07T12:01:31;19.00;;;17.55;;
48588;SDS011;34369;51.174;6.738;2023-05-07T12:04:08;19.10;;;17.60;;
48588;SDS011;34369;51.174;6.738;2023-05-07T12:06:43;19.65;;;18.15;;
48588;SDS011;34369;51.174;6.738;2023-05-07T12:09:16;19.40;;;17.90;;
48588;SDS011;34369;51.174;6.738;2023-05-07T12:11:50;19.10;;;17.70;;
48588;SDS011;34369;51.174;6.738;2023-05-07T12:14:27;19.45;;;17.85;;
48588;SDS011;34369;51.174;6.738;2023-05-07T12:17:01;19.30;;;17.83;;
48588;SDS011;34369;51.174;6.738;2023-05-07T12:19:36;19.98;;;18.27;;
48588;SDS011;34369;51.174;6.738;2023-05-07T12:22:12;19.98;;;18.48;;
48588;SDS011;34369;51.174;6.738;2023-05-07T12:24:49;18.90;;;17.50;;
48588;SDS011;34369;51.174;6.738;2023-05-07T12:27:30;19.38;;;17.88;;
48588;SDS011;34369;51.174;6.738;2023-05-07T12:30:03;19.20;;;17.70;;
48588;SDS011;34369;51.174;6.738;2023-05-07T12:32:41;19.63;;;18.15;;
48588;SDS011;34369;51.174;6.738;2023-05-07T12:35:16;19.13;;;17.67;;
48588;SDS011;34369;51.174;6.738;2023-05-07T12:37:59;19.80;;;18.20;;
48588;SDS011;34369;51.174;6.738;2023-05-07T12:40:37;19.77;;;18.27;;
48588;SDS011;34369;51.174;6.738;2023-05-07T12:43:15;19.65;;;18.17;;
48588;SDS011;34369;51.174;6.738;2023-05-07T12:45:49;18.95;;;17.55;;
48588;SDS011;34369;51.174;6.738;2023-05-07T12:48:26;19.55;;;18.05;;
48588;SDS011;34369;51.174;6.738;2023-05-07T12:51:00;20.33;;;18.83;;
48588;SDS011;34369;51.174;6.738;2023-05-07T12:53:39;19.88;;;18.38;;
48588;SDS011;34369;51.174;6.738;2023-05-07T12:56:12;20.30;;;18.70;;
48588;SDS011;34369;51.174;6.738;2023-05-07T12:58:48;19.50;;;18.10;;
48588;SDS011;34369;51.174;6.738;2023-05-07T13:01:21;20.15;;;18.48;;
48588;SDS011;34369;51.174;6.738;2023-05-07T13:04:03;19.90;;;18.30;;
48588;SDS011;34369;51.174;6.738;2023-05-07T13:06:36;19.77;;;18.27;;
48588;SDS011;34369;51.174;6.738;2023-05-07T13:09:11;20.40;;;18.90;;
48588;SDS011;34369;51.174;6.738;2023-05-07T13:11:45;19.33;;;17.83;;
48588;SDS011;34369;51.174;6.738;2023-05-07T13:14:18;19.65;;;18.15;;
48588;SDS011;34369;51.174;6.738;2023-05-07T13:16:51;19.98;;;18.48;;
48588;SDS011;34369;51.174;6.738;2023-05-07T13:19:26;20.30;;;18.80;;
48588;SDS011;34369;51.174;6.738;2023-05-07T13:22:01;20.27;;;18.67;;
48588;SDS011;34369;51.174;6.738;2023-05-07T13:24:39;20.15;;;18.65;;
48588;SDS011;34369;51.174;6.738;2023-05-07T13:27:13;20.23;;;18.73;;
48588;SDS011;34369;51.174;6.738;2023-05-07T13:29:46;20.05;;;18.55;;
48588;SDS011;34369;51.174;6.738;2023-05-07T13:32:19;20.77;;;19.20;;
48588;SDS011;34369;51.174;6.738;2023-05-07T13:34:53;20.20;;;18.70;;
48588;SDS011;34369;51.174;6.738;2023-05-07T13:37:27;20.27;;;18.77;;
48588;SDS011;34369;51.174;6.738;2023-05-07T13:40:03;19.83;;;18.20;;
48588;SDS011;34369;51.174;6.738;2023-05-07T13:42:37;19.63;;;18.02;;
48588;SDS011;34369;51.174;6.738;2023-05-07T13:45:11;20.15;;;18.63;;
48588;SDS011;34369;51.174;6.738;2023-05-07T13:47:45;19.95;;;18.38;;
48588;SDS011;34369;51.174;6.738;2023-05-07T13:50:19;20.25;;;18.65;;
48588;SDS011;34369;51.174;6.738;2023-05-07T13:52:53;20.10;;;18.60;;
48588;SDS011;34369;51.174;6.738;2023-05-07T13:55:28;20.60;;;18.95;;
48588;SDS011;34369;51.174;6.738;2023-05-07T13:58:01;20.88;;;19.27;;
48588;SDS011;34369;51.174;6.738;2023-05-07T14:00:35;20.40;;;18.90;;
48588;SDS011;34369;51.174;6.738;2023-05-07T14:03:07;21.17;;;19.58;;
48588;SDS011;34369;51.174;6.738;2023-05-07T14:05:39;21.30;;;19.77;;
48588;SDS011;34369;51.174;6.738;2023-05-07T14:08:12;20.50;;;19.00;;
48588;SDS011;34369;51.174;6.738;2023-05-07T14:10:47;21.30;;;19.70;;
48588;SDS011;34369;51.174;6.738;2023-05-07T14:13:19;21.50;;;19.90;;
48588;SDS011;34369;51.174;6.738;2023-05-07T14:15:51;21.75;;;20.05;;
48588;SDS011;34369;51.174;6.738;2023-05-07T14:18:24;22.50;;;20.77;;
48588;SDS011;34369;51.174;6.738;2023-05-07T14:20:58;22.80;;;21.05;;
48588;SDS011;34369;51.174;6.738;2023-05-07T14:23:33;22.70;;;21.00;;
48588;SDS011;34369;51.174;6.738;2023-05-07T14:26:08;22.38;;;20.63;;
48588;SDS011;34369;51.174;6.738;2023-05-07T14:28:42;22.67;;;20.95;;
48588;SDS011;34369;51.174;6.738;2023-05-07T14:31:16;22.63;;;20.98;;
48588;SDS011;34369;51.174;6.738;2023-05-07T14:33:49;22.83;;;21.13;;
48588;SDS011;34369;51.174;6.738;2023-05-07T14:36:21;23.65;;;21.95;;
48588;SDS011;34369;51.174;6.738;2023-05-07T14:38:56;23.55;;;21.60;;
48588;SDS011;34369;51.174;6.738;2023-05-07T14:41:31;23.80;;;22.02;;
48588;SDS011;34369;51.174;6.738;2023-05-07T14:44:04;23.55;;;21.85;;
48588;SDS011;34369;51.174;6.738;2023-05-07T14:46:38;23.33;;;21.63;;
48588;SDS011;34369;51.174;6.738;2023-05-07T14:49:16;23.33;;;21.63;;
48588;SDS011;34369;51.174;6.738;2023-05-07T14:51:53;23.70;;;21.88;;
48588;SDS011;34369;51.174;6.738;2023-05-07T14:54:29;23.58;;;21.73;;
48588;SDS011;34369;51.174;6.738;2023-05-07T14:57:08;23.05;;;21.35;;
48588;SDS011;34369;51.174;6.738;2023-05-07T14:59:43;23.08;;;21.38;;
48588;SDS011;34369;51.174;6.738;2023-05-07T15:02:16;23.80;;;22.00;;
48588;SDS011;34369;51.174;6.738;2023-05-07T15:04:50;23.73;;;22.02;;
48588;SDS011;34369;51.174;6.738;2023-05-07T15:07:23;24.17;;;22.35;;
48588;SDS011;34369;51.174;6.738;2023-05-07T15:09:57;23.88;;;22.08;;
48588;SDS011;34369;51.174;6.738;2023-05-07T15:12:32;23.35;;;21.65;;
48588;SDS011;34369;51.174;6.738;2023-05-07T15:15:05;23.25;;;21.52;;
48588;SDS011;34369;51.174;6.738;2023-05-07T15:17:40;22.75;;;21.15;;
48588;SDS011;34369;51.174;6.738;2023-05-07T15:20:13;23.95;;;22.25;;
48588;SDS011;34369;51.174;6.738;2023-05-07T15:22:45;23.45;;;21.75;;
48588;SDS011;34369;51.174;6.738;2023-05-07T15:25:18;23.38;;;21.67;;
48588;SDS011;34369;51.174;6.738;2023-05-07T15:27:53;23.52;;;21.83;;
48588;SDS011;34369;51.174;6.738;2023-05-07T15:30:26;23.17;;;21.48;;
48588;SDS011;34369;51.174;6.738;2023-05-07T15:33:00;22.73;;;21.13;;
48588;SDS011;34369;51.174;6.738;2023-05-07T15:35:33;23.98;;;22.20;;
48588;SDS011;34369;51.174;6.738;2023-05-07T15:38:08;22.80;;;21.13;;
48588;SDS011;34369;51.174;6.738;2023-05-07T15:40:43;23.45;;;21.83;;
48588;SDS011;34369;51.174;6.738;2023-05-07T15:43:18;23.30;;;21.60;;
48588;SDS011;34369;51.174;6.738;2023-05-07T15:45:51;23.13;;;21.42;;
48588;SDS011;34369;51.174;6.738;2023-05-07T15:48:24;23.05;;;21.35;;
48588;SDS011;34369;51.174;6.738;2023-05-07T15:50:58;23.38;;;21.67;;
48588;SDS011;34369;51.174;6.738;2023-05-07T15:53:32;23.02;;;21.33;;
48588;SDS011;34369;51.174;6.738;2023-05-07T15:56:05;23.33;;;21.63;;
48588;SDS011;34369;51.174;6.738;2023-05-07T15:58:41;24.50;;;22.80;;
48588;SDS011;34369;51.174;6.738;2023-05-07T16:01:15;23.27;;;21.55;;
48588;SDS011;34369;51.174;6.738;2023-05-07T16:03:47;23.77;;;21.98;;
48588;SDS011;34369;51.174;6.738;2023-05-07T16:06:21;23.63;;;21.90;;
48588;SDS011;34369;51.174;6.738;2023-05-07T16:08:55;24.10;;;22.30;;
48588;SDS011;34369;51.174;6.738;2023-05-07T16:11:29;24.17;;;22.38;;
48588;SDS011;34369;51.174;6.738;2023-05-07T16:14:05;23.83;;;22.05;;
48588;SDS011;34369;51.174;6.738;2023-05-07T16:16:39;24.10;;;22.30;;
48588;SDS011;34369;51.174;6.738;2023-05-07T16:19:13;23.30;;;21.60;;
48588;SDS011;34369;51.174;6.738;2023-05-07T16:21:47;23.20;;;21.50;;
48588;SDS011;34369;51.174;6.738;2023-05-07T16:24:20;23.98;;;22.15;;
48588;SDS011;34369;51.174;6.738;2023-05-07T16:26:53;23.65;;;21.85;;